Terminal Aerodrome Forecast
Issued by NWS Wilmington, OH

Current Version | Previous Version | Text Only | Print | Product List | Glossary Off
Versions: 1 2 3 4 5 6 7 8 9 10 11 12 13 14 15 16 17 18

000
FTUS41 KILN 071731
TAFDAY
TAF
KDAY 071731Z 0718/0818 25010KT P6SM BKN150
     FM080000 27009KT P6SM BKN080
     FM081400 27012G20KT P6SM FEW030 SCT120=

USA.gov is the U.S. government's official web portal to all federal, state and local government web resources and services.